Terminal Aerodrome Forecast
Issued by NWS

Home | Current Version | Previous Version | Text Only | Print | Product List | Glossary On
Versions: 1 2 3 4 5 6 7 8 9 10 11 12 13 14 15
000
FTUS45 KREV 011120
TAFMMH
TAF
KMMH 011120Z 0112/0212 VRB03KT P6SM SKC
     FM011600 14008KT P6SM SKC
     FM012200 29014G24KT P6SM SKC
     FM020400 VRB03KT P6SM SKC=

USA.gov is the U.S. government's official web portal to all federal, state and local government web resources and services.